Time;durP1;ratioP1;P1;durP2;ratioP2;P2;SDS_P1;SDS_P2;PMS_P1;PMS_P2;Temp;Humidity;BMP_temperature;BMP_pressure;BME280_temperature;BME280_humidity;BME280_pressure;Samples;Min_cycle;Max_cycle;Signal;HPM_P1;HPM_P2
2021/08/31 00:00:13;;;;;;;618.07;559.60;;;;;;;-142.25;100.00;58004.16;5077996;28;20042;-58
2021/08/31 00:02:39;;;;;;;630.03;570.77;;;;;;;-142.25;100.00;58004.16;5079728;28;20050;-57
2021/08/31 00:05:05;;;;;;;629.57;571.00;;;;;;;-142.25;100.00;58004.16;5081636;28;20032;-57
2021/08/31 00:07:30;;;;;;;625.60;567.00;;;;;;;-142.25;100.00;58004.16;5077480;28;20112;-57
2021/08/31 00:09:56;;;;;;;621.20;562.53;;;;;;;-142.25;100.00;58004.16;5077891;28;20161;-58
2021/08/31 00:12:21;;;;;;;608.40;550.33;;;;;;;-142.25;100.00;58004.16;5079952;28;20024;-56
2021/08/31 00:14:47;;;;;;;614.63;556.40;;;;;;;-142.25;100.00;58004.16;5062930;28;20340;-58
2021/08/31 00:17:16;;;;;;;620.17;561.67;;;;;;;-142.25;100.00;58004.16;5078511;28;20024;-57
2021/08/31 00:19:42;;;;;;;613.73;555.43;;;;;;;-142.25;100.00;58004.16;5079196;28;20069;-56
2021/08/31 00:22:07;;;;;;;617.50;559.33;;;;;;;-142.25;100.00;58004.16;5063484;28;20276;-58
2021/08/31 00:24:33;;;;;;;671.33;610.20;;;;;;;-142.25;100.00;58004.16;5077507;28;20494;-58
2021/08/31 00:26:58;;;;;;;644.10;584.60;;;;;;;-142.25;100.00;58004.16;5063700;28;20051;-57
2021/08/31 00:29:24;;;;;;;687.10;625.77;;;;;;;-142.25;100.00;58004.16;5063805;28;20032;-55
2021/08/31 00:31:49;;;;;;;610.97;552.73;;;;;;;-142.25;100.00;58004.16;5070965;28;20365;-59
2021/08/31 00:34:18;;;;;;;679.53;618.63;;;;;;;-142.25;100.00;58004.16;5078125;28;20058;-58
2021/08/31 00:36:43;;;;;;;601.33;543.47;;;;;;;-142.25;100.00;58004.16;5065492;28;20081;-57
2021/08/31 00:39:09;;;;;;;604.03;546.20;;;;;;;-142.25;100.00;58004.16;5075935;28;20032;-58
2021/08/31 00:41:36;;;;;;;623.30;564.30;;;;;;;-142.25;100.00;58004.16;5078586;28;20056;-58
2021/08/31 00:44:02;;;;;;;610.27;551.77;;;;;;;-142.25;100.00;58004.16;5078998;28;20016;-58
2021/08/31 00:46:27;;;;;;;618.90;559.87;;;;;;;-142.25;100.00;58004.16;5078458;28;20045;-58
2021/08/31 00:48:53;;;;;;;612.57;554.27;;;;;;;-142.25;100.00;58004.16;5078718;28;20036;-56
2021/08/31 00:51:21;;;;;;;620.73;561.53;;;;;;;-142.25;100.00;58004.16;5075133;28;20035;-56
2021/08/31 00:53:48;;;;;;;622.17;563.50;;;;;;;-142.25;100.00;58004.16;5078616;28;20089;-59
2021/08/31 00:56:14;;;;;;;611.47;552.77;;;;;;;-142.25;100.00;58004.16;5077567;28;20016;-59
2021/08/31 00:58:41;;;;;;;620.23;561.57;;;;;;;-142.25;100.00;58004.16;5077019;28;20028;-55
2021/08/31 01:01:07;;;;;;;620.33;561.40;;;;;;;-142.25;100.00;58004.16;5078351;28;20034;-59
2021/08/31 01:03:33;;;;;;;609.43;550.83;;;;;;;-142.25;100.00;58004.16;5079858;28;20202;-57
2021/08/31 01:06:01;;;;;;;619.60;560.93;;;;;;;-142.25;100.00;58004.16;5077625;28;20067;-55
2021/08/31 01:08:27;;;;;;;626.93;568.33;;;;;;;-142.25;100.00;58004.16;5077980;28;20530;-55
2021/08/31 01:10:53;;;;;;;617.53;559.03;;;;;;;-142.25;100.00;58004.16;5061800;28;20336;-57
2021/08/31 01:13:19;;;;;;;616.40;557.90;;;;;;;-142.25;100.00;58004.16;5079180;28;20035;-57
2021/08/31 01:15:45;;;;;;;609.17;550.93;;;;;;;-142.25;100.00;58004.16;5079128;28;20028;-59
2021/08/31 01:18:16;;;;;;;616.07;557.27;;;;;;;-142.25;100.00;58004.16;5077554;28;20035;-58
2021/08/31 01:20:42;;;;;;;607.37;549.13;;;;;;;-142.25;100.00;58004.16;5079326;28;20063;-59
2021/08/31 01:23:08;;;;;;;603.87;544.60;;;;;;;-142.25;100.00;58004.16;5078865;28;20266;-58
2021/08/31 01:25:34;;;;;;;604.47;545.87;;;;;;;-142.25;100.00;58004.16;5080158;28;20319;-59
2021/08/31 01:27:59;;;;;;;610.03;551.30;;;;;;;-142.25;100.00;58004.16;5080238;28;20410;-58
2021/08/31 01:30:24;;;;;;;606.63;547.90;;;;;;;-142.25;100.00;58004.16;5080800;28;20028;-56
2021/08/31 01:32:50;;;;;;;607.67;549.20;;;;;;;-142.25;100.00;58004.16;5065096;28;20040;-57
2021/08/31 01:35:15;;;;;;;604.60;545.93;;;;;;;-142.25;100.00;58004.16;5078396;28;20097;-59
2021/08/31 01:37:41;;;;;;;617.93;559.20;;;;;;;-142.25;100.00;58004.16;5078163;28;20309;-57
2021/08/31 01:40:06;;;;;;;611.77;553.03;;;;;;;-142.25;100.00;58004.16;5079232;28;20028;-57
2021/08/31 01:42:32;;;;;;;612.87;554.13;;;;;;;-142.25;100.00;58004.16;5079648;28;20047;-58
2021/08/31 01:44:57;;;;;;;624.47;564.97;;;;;;;-142.25;100.00;58004.16;5078620;28;20297;-59
2021/08/31 01:47:23;;;;;;;601.30;542.90;;;;;;;-142.25;100.00;58004.16;5078553;28;20092;-57
2021/08/31 01:49:48;;;;;;;606.90;548.13;;;;;;;-142.25;100.00;58004.16;5076958;28;20040;-56
2021/08/31 01:52:14;;;;;;;607.80;549.37;;;;;;;-142.25;100.00;58004.16;5077657;28;20107;-59
2021/08/31 01:54:39;;;;;;;601.17;542.80;;;;;;;-142.25;100.00;58004.16;5076434;28;20104;-55
2021/08/31 01:57:04;;;;;;;605.87;547.40;;;;;;;-142.25;100.00;58004.16;5077390;28;20058;-59
2021/08/31 01:59:30;;;;;;;608.93;550.43;;;;;;;-142.25;100.00;58004.16;5079819;28;20401;-59
2021/08/31 02:01:55;;;;;;;614.30;555.20;;;;;;;-142.25;100.00;58004.16;5078513;28;20037;-58
2021/08/31 02:04:21;;;;;;;618.33;559.50;;;;;;;-142.25;100.00;58004.16;5077090;28;20105;-59
2021/08/31 02:06:46;;;;;;;610.20;551.80;;;;;;;-142.25;100.00;58004.16;5078566;28;20029;-57
2021/08/31 02:09:12;;;;;;;598.47;540.40;;;;;;;-142.25;100.00;58004.16;5071053;28;20034;-58
2021/08/31 02:11:37;;;;;;;595.30;537.20;;;;;;;-142.25;100.00;58004.16;5082509;28;20036;-56
2021/08/31 02:14:03;;;;;;;605.27;547.10;;;;;;;-142.25;100.00;58004.16;5082892;28;20454;-55
2021/08/31 02:16:28;;;;;;;597.87;539.40;;;;;;;-142.25;100.00;58004.16;5080702;28;20037;-55
2021/08/31 02:18:53;;;;;;;602.57;544.43;;;;;;;-142.25;100.00;58004.16;5082549;28;20059;-58
2021/08/31 02:21:19;;;;;;;602.70;544.60;;;;;;;-142.25;100.00;58004.16;5080701;28;20035;-57
2021/08/31 02:23:44;;;;;;;592.13;534.47;;;;;;;-142.25;100.00;58004.16;5081036;28;20024;-56
2021/08/31 02:26:10;;;;;;;599.00;540.80;;;;;;;-142.25;100.00;58004.16;5080724;28;20028;-57
2021/08/31 02:28:35;;;;;;;605.33;547.03;;;;;;;-142.25;100.00;58004.16;5067541;28;20376;-59
2021/08/31 02:31:00;;;;;;;591.83;534.00;;;;;;;-142.25;100.00;58004.16;5081235;28;20678;-55
2021/08/31 02:33:26;;;;;;;600.30;542.00;;;;;;;-142.25;100.00;58004.16;5081910;28;20717;-58
2021/08/31 02:35:51;;;;;;;601.30;543.43;;;;;;;-142.25;100.00;58004.16;5079338;28;20043;-58
2021/08/31 02:38:17;;;;;;;603.57;545.33;;;;;;;-142.25;100.00;58004.16;5066473;28;20407;-55
2021/08/31 02:40:42;;;;;;;617.47;558.53;;;;;;;-142.25;100.00;58004.16;5082523;28;20020;-56
2021/08/31 02:43:08;;;;;;;604.77;546.63;;;;;;;-142.25;100.00;58004.16;5061690;28;20476;-58
2021/08/31 02:45:33;;;;;;;617.53;558.87;;;;;;;-142.25;100.00;58004.16;5080734;28;20393;-57
2021/08/31 02:47:59;;;;;;;629.53;570.50;;;;;;;-142.25;100.00;58004.16;5080095;28;20137;-58
2021/08/31 02:50:24;;;;;;;628.33;569.35;;;;;;;-142.25;100.00;58004.16;5065297;28;20348;-56
2021/08/31 02:52:50;;;;;;;617.47;559.07;;;;;;;-142.25;100.00;58004.16;5081914;28;20024;-59
2021/08/31 02:55:15;;;;;;;625.00;566.60;;;;;;;-142.25;100.00;58004.16;5082175;28;20023;-59
2021/08/31 02:57:41;;;;;;;621.30;562.70;;;;;;;-142.25;100.00;58004.16;5080720;28;20104;-59
2021/08/31 03:00:09;;;;;;;636.80;577.90;;;;;;;-142.25;100.00;58004.16;5079714;28;20425;-58
2021/08/31 03:02:35;;;;;;;615.73;557.43;;;;;;;-142.25;100.00;58004.16;5081377;28;20032;-58
2021/08/31 03:05:00;;;;;;;613.90;556.00;;;;;;;-142.25;100.00;58004.16;5081245;28;20043;-56
2021/08/31 03:07:26;;;;;;;630.20;571.33;;;;;;;-142.25;100.00;58004.16;5080616;28;20393;-56
2021/08/31 03:09:51;;;;;;;626.83;568.07;;;;;;;-142.25;100.00;58004.16;5082872;28;20028;-56
2021/08/31 03:12:17;;;;;;;627.90;569.10;;;;;;;-142.25;100.00;58004.16;5078685;28;20048;-57
2021/08/31 03:14:43;;;;;;;615.50;557.20;;;;;;;-142.25;100.00;58004.16;5079990;28;20308;-57
2021/08/31 03:17:09;;;;;;;633.90;574.27;;;;;;;-142.25;100.00;58004.16;5079898;28;20029;-55
2021/08/31 03:19:35;;;;;;;618.57;559.63;;;;;;;-142.25;100.00;58004.16;5078267;28;20632;-57
2021/08/31 03:22:04;;;;;;;608.60;550.77;;;;;;;-142.25;100.00;58004.16;5079547;28;20016;-57
2021/08/31 03:24:30;;;;;;;604.60;546.67;;;;;;;-142.25;100.00;58004.16;5079599;28;20284;-57
2021/08/31 03:26:56;;;;;;;593.07;535.07;;;;;;;-142.25;100.00;58004.16;5079533;28;20020;-53
2021/08/31 03:29:22;;;;;;;583.17;525.87;;;;;;;-142.25;100.00;58004.16;5061911;28;20043;-55
2021/08/31 03:31:48;;;;;;;593.30;535.87;;;;;;;-142.25;100.00;58004.16;5080030;28;20059;-58
2021/08/31 03:34:13;;;;;;;601.07;543.10;;;;;;;-142.25;100.00;58004.16;5060497;28;20061;-59
2021/08/31 03:36:39;;;;;;;590.83;532.87;;;;;;;-142.25;100.00;58004.16;5059415;28;20028;-58
2021/08/31 03:39:04;;;;;;;592.47;534.97;;;;;;;-142.25;100.00;58004.16;5059180;28;20025;-57
2021/08/31 03:41:30;;;;;;;591.07;533.27;;;;;;;-142.25;100.00;58004.16;5060240;28;20028;-58
2021/08/31 03:43:55;;;;;;;594.80;537.10;;;;;;;-142.25;100.00;58004.16;5059809;28;20032;-54
2021/08/31 03:46:21;;;;;;;588.43;530.47;;;;;;;-142.25;100.00;58004.16;5059135;28;20024;-55
2021/08/31 03:48:47;;;;;;;571.93;515.07;;;;;;;-142.25;100.00;58004.16;5059035;28;20078;-58
2021/08/31 03:51:12;;;;;;;587.90;530.40;;;;;;;-142.25;100.00;58004.16;5058895;28;20382;-57
2021/08/31 03:53:38;;;;;;;587.47;530.07;;;;;;;-142.25;100.00;58004.16;5060089;28;20032;-57
2021/08/31 03:56:04;;;;;;;585.03;527.10;;;;;;;-142.25;100.00;58004.16;5058065;28;20067;-57
2021/08/31 03:58:29;;;;;;;577.10;520.03;;;;;;;-142.25;100.00;58004.16;5059918;28;20056;-58
2021/08/31 04:00:55;;;;;;;585.93;528.57;;;;;;;-142.25;100.00;58004.16;5059045;28;20060;-57
2021/08/31 04:03:20;;;;;;;576.57;519.43;;;;;;;-142.25;100.00;58004.16;5058323;28;20040;-57
2021/08/31 04:05:45;;;;;;;582.57;525.17;;;;;;;-142.25;100.00;58004.16;5057448;28;20448;-56
2021/08/31 04:08:11;;;;;;;573.73;516.80;;;;;;;-142.25;100.00;58004.16;5059005;28;20535;-59
2021/08/31 04:10:37;;;;;;;581.23;523.77;;;;;;;-142.25;100.00;58004.16;5060220;28;20036;-57
2021/08/31 04:13:03;;;;;;;579.30;521.57;;;;;;;-142.25;100.00;58004.16;5057692;28;20036;-58
2021/08/31 04:15:29;;;;;;;578.83;520.93;;;;;;;-142.25;100.00;58004.16;5059996;28;20020;-59
2021/08/31 04:17:54;;;;;;;573.13;516.07;;;;;;;-142.25;100.00;58004.16;5056785;28;20368;-59
2021/08/31 04:20:19;;;;;;;576.97;519.73;;;;;;;-142.25;100.00;58004.16;5058980;28;20031;-58
2021/08/31 04:22:45;;;;;;;576.37;519.03;;;;;;;-142.25;100.00;58004.16;5059186;28;20028;-58
2021/08/31 04:25:11;;;;;;;572.60;515.27;;;;;;;-142.25;100.00;58004.16;5056298;28;20041;-57
2021/08/31 04:27:36;;;;;;;568.43;511.23;;;;;;;-142.25;100.00;58004.16;5060477;28;20117;-59
2021/08/31 04:30:03;;;;;;;570.37;512.97;;;;;;;-142.25;100.00;58004.16;5058421;28;20679;-57
2021/08/31 04:32:29;;;;;;;570.47;513.37;;;;;;;-142.25;100.00;58004.16;5058060;28;20479;-56
2021/08/31 04:34:56;;;;;;;569.17;512.13;;;;;;;-142.25;100.00;58004.16;5071156;28;20048;-58
2021/08/31 04:37:22;;;;;;;562.67;505.90;;;;;;;-142.25;100.00;58004.16;5079351;28;20115;-56
2021/08/31 04:39:47;;;;;;;562.93;506.00;;;;;;;-142.25;100.00;58004.16;5080553;28;20106;-57
2021/08/31 04:42:13;;;;;;;566.40;509.17;;;;;;;-142.25;100.00;58004.16;5080424;28;20129;-57
2021/08/31 04:44:38;;;;;;;569.67;512.60;;;;;;;-142.25;100.00;58004.16;5066848;28;20059;-59
2021/08/31 04:47:04;;;;;;;566.47;509.53;;;;;;;-142.25;100.00;58004.16;5077802;28;20066;-58
2021/08/31 04:49:29;;;;;;;577.80;520.63;;;;;;;-142.25;100.00;58004.16;5077752;28;20039;-61
2021/08/31 04:51:55;;;;;;;579.30;522.10;;;;;;;-142.25;100.00;58004.16;5063811;28;20086;-60
2021/08/31 04:54:20;;;;;;;592.60;534.60;;;;;;;-142.25;100.00;58004.16;5078446;28;20322;-57
2021/08/31 04:56:46;;;;;;;588.80;531.43;;;;;;;-142.25;100.00;58004.16;5076994;28;20024;-59
2021/08/31 04:59:11;;;;;;;602.23;544.27;;;;;;;-142.25;100.00;58004.16;5078815;28;20179;-58
2021/08/31 05:01:37;;;;;;;598.27;540.60;;;;;;;-142.25;100.00;58004.16;5078881;28;20059;-57
2021/08/31 05:04:02;;;;;;;609.30;551.63;;;;;;;-142.25;100.00;58004.16;5077776;28;20017;-57
2021/08/31 05:06:28;;;;;;;617.97;559.20;;;;;;;-142.25;100.00;58004.16;5076629;28;20036;-59
2021/08/31 05:08:53;;;;;;;621.17;563.30;;;;;;;-142.25;100.00;58004.16;5064429;28;20020;-58
2021/08/31 05:11:22;;;;;;;631.47;573.00;;;;;;;-142.25;100.00;58004.16;5075877;28;20032;-57
2021/08/31 05:13:47;;;;;;;633.37;574.87;;;;;;;-142.25;100.00;58004.16;5077389;28;20081;-59
2021/08/31 05:16:16;;;;;;;640.30;581.87;;;;;;;-142.25;100.00;58004.16;5077365;28;20380;-59
2021/08/31 05:18:42;;;;;;;640.40;581.90;;;;;;;-142.25;100.00;58004.16;5076546;28;20078;-59
2021/08/31 05:21:08;;;;;;;644.80;585.97;;;;;;;-142.25;100.00;58004.16;5078343;28;20392;-59
2021/08/31 05:23:34;;;;;;;647.33;588.67;;;;;;;-142.25;100.00;58004.16;5078889;28;20028;-59
2021/08/31 05:26:01;;;;;;;660.37;601.07;;;;;;;-142.25;100.00;58004.16;5078502;28;20408;-59
2021/08/31 05:28:26;;;;;;;657.37;598.40;;;;;;;-142.25;100.00;58004.16;5079534;28;20340;-59
2021/08/31 05:30:52;;;;;;;670.87;611.60;;;;;;;-142.25;100.00;58004.16;5063757;28;20428;-59
2021/08/31 05:33:18;;;;;;;673.67;613.97;;;;;;;-142.25;100.00;58004.16;5077943;28;20407;-59
2021/08/31 05:35:43;;;;;;;667.13;608.07;;;;;;;-142.25;100.00;58004.16;5076837;28;20357;-59
2021/08/31 05:38:09;;;;;;;674.60;615.13;;;;;;;-142.25;100.00;58004.16;5078967;28;20142;-56
2021/08/31 05:40:35;;;;;;;684.83;625.07;;;;;;;-142.25;100.00;58004.16;5077596;28;20254;-58
2021/08/31 05:43:00;;;;;;;688.50;628.83;;;;;;;-142.25;100.00;58004.16;5078768;28;20028;-58
2021/08/31 05:45:26;;;;;;;683.50;623.83;;;;;;;-142.25;100.00;58004.16;5061598;28;20066;-56
2021/08/31 05:47:51;;;;;;;689.23;629.60;;;;;;;-142.25;100.00;58004.16;5082480;28;20293;-58
2021/08/31 05:50:17;;;;;;;704.60;643.57;;;;;;;-142.25;100.00;58004.16;5082144;28;20056;-57
2021/08/31 05:52:42;;;;;;;690.00;630.50;;;;;;;-142.25;100.00;58004.16;5067655;28;20093;-58
2021/08/31 05:55:08;;;;;;;698.87;638.23;;;;;;;-142.25;100.00;58004.16;5081606;28;20138;-58
2021/08/31 05:57:34;;;;;;;700.43;639.93;;;;;;;-142.25;100.00;58004.16;5080447;28;20550;-59
2021/08/31 06:00:00;;;;;;;703.43;643.33;;;;;;;-142.25;100.00;58004.16;5081686;28;20024;-59
2021/08/31 06:02:25;;;;;;;719.33;658.08;;;;;;;-142.25;100.00;58004.16;5082015;28;20098;-58
2021/08/31 06:04:50;;;;;;;708.10;647.77;;;;;;;-142.25;100.00;58004.16;5080786;28;20056;-58
2021/08/31 06:07:16;;;;;;;716.47;655.77;;;;;;;-142.25;100.00;58004.16;5068408;28;20032;-59
2021/08/31 06:09:42;;;;;;;709.87;649.77;;;;;;;-142.25;100.00;58004.16;5080956;28;20024;-59
2021/08/31 06:12:12;;;;;;;714.37;654.10;;;;;;;-142.25;100.00;58004.16;5080207;28;20028;-57
2021/08/31 06:14:39;;;;;;;720.93;660.43;;;;;;;-142.25;100.00;58004.16;5080228;28;20032;-57
2021/08/31 06:17:06;;;;;;;724.58;664.05;;;;;;;-142.25;100.00;58004.16;5080883;28;20372;-61
2021/08/31 06:19:32;;;;;;;731.47;670.67;;;;;;;-142.25;100.00;58004.16;5081066;28;20130;-57
2021/08/31 06:21:58;;;;;;;741.70;680.60;;;;;;;-142.25;100.00;58004.16;5081484;28;20040;-57
2021/08/31 06:24:25;;;;;;;743.67;682.78;;;;;;;-142.25;100.00;58004.16;5080553;28;20043;-57
2021/08/31 06:26:50;;;;;;;764.53;702.45;;;;;;;-142.25;100.00;58004.16;5081608;28;20034;-58
2021/08/31 06:29:15;;;;;;;738.70;678.05;;;;;;;-142.25;100.00;58004.16;5081085;28;20028;-59
2021/08/31 06:31:41;;;;;;;754.42;693.05;;;;;;;-142.25;100.00;58004.16;5079439;28;20075;-58
2021/08/31 06:34:07;;;;;;;758.85;697.53;;;;;;;-142.25;100.00;58004.16;5059821;28;20051;-57
2021/08/31 06:36:32;;;;;;;762.15;700.25;;;;;;;-142.25;100.00;58004.16;5059742;28;20270;-57
2021/08/31 06:38:58;;;;;;;758.10;696.83;;;;;;;-142.25;100.00;58004.16;5061608;28;20086;-59
2021/08/31 06:41:23;;;;;;;756.78;695.78;;;;;;;-142.25;100.00;58004.16;5061497;28;20039;-59
2021/08/31 06:43:49;;;;;;;758.45;697.35;;;;;;;-142.25;100.00;58004.16;5058877;28;20036;-59
2021/08/31 06:46:15;;;;;;;768.20;706.42;;;;;;;-142.25;100.00;58004.16;5062356;28;20032;-57
2021/08/31 06:48:42;;;;;;;758.78;697.38;;;;;;;-142.25;100.00;58004.16;5060781;28;20444;-59
2021/08/31 06:51:09;;;;;;;761.25;700.08;;;;;;;-142.25;100.00;58004.16;5061576;28;20123;-55
2021/08/31 06:53:35;;;;;;;758.70;697.38;;;;;;;-142.25;100.00;58004.16;5061472;28;20035;-57
2021/08/31 06:56:00;;;;;;;760.97;699.63;;;;;;;-142.25;100.00;58004.16;5061810;28;20029;-58
2021/08/31 06:58:25;;;;;;;752.15;691.33;;;;;;;-142.25;100.00;58004.16;5060060;28;20032;-59
2021/08/31 07:00:51;;;;;;;758.28;697.10;;;;;;;-142.25;100.00;58004.16;5063306;28;20036;-59
2021/08/31 07:03:16;;;;;;;757.38;696.17;;;;;;;-142.25;100.00;58004.16;5059063;28;20438;-58
2021/08/31 07:05:42;;;;;;;758.67;697.40;;;;;;;-142.25;100.00;58004.16;5057563;28;20032;-58
2021/08/31 07:08:07;;;;;;;757.08;695.90;;;;;;;-142.25;100.00;58004.16;5059659;28;20035;-59
2021/08/31 07:10:33;;;;;;;753.10;692.05;;;;;;;-142.25;100.00;58004.16;5060566;28;20385;-60
2021/08/31 07:12:58;;;;;;;756.67;695.78;;;;;;;-142.25;100.00;58004.16;5058806;28;20029;-59
2021/08/31 07:15:24;;;;;;;758.03;696.80;;;;;;;-142.25;100.00;58004.16;5058956;28;20060;-59
2021/08/31 07:17:49;;;;;;;744.45;683.97;;;;;;;-142.25;100.00;58004.16;5062082;28;20039;-59
2021/08/31 07:20:15;;;;;;;751.85;691.03;;;;;;;-142.25;100.00;58004.16;5059822;28;20033;-57
2021/08/31 07:22:40;;;;;;;751.65;690.92;;;;;;;-142.25;100.00;58004.16;5061269;28;20035;-58
2021/08/31 07:25:06;;;;;;;749.88;688.88;;;;;;;-142.25;100.00;58004.16;5059363;28;20352;-56
2021/08/31 07:27:32;;;;;;;745.78;685.25;;;;;;;-142.25;100.00;58004.16;5059843;28;20127;-58
2021/08/31 07:29:57;;;;;;;751.92;691.42;;;;;;;-142.25;100.00;58004.16;5060043;28;20397;-58
2021/08/31 07:32:22;;;;;;;789.38;725.40;;;;;;;-142.25;100.00;58004.16;5057896;28;20056;-60
2021/08/31 07:34:48;;;;;;;774.17;712.40;;;;;;;-142.25;100.00;58004.16;5068952;28;20063;-57
2021/08/31 07:37:13;;;;;;;771.83;710.58;;;;;;;-142.25;100.00;58004.16;5081067;28;20025;-58
2021/08/31 07:39:39;;;;;;;789.50;726.88;;;;;;;-142.25;100.00;58004.16;5078697;28;20178;-58
2021/08/31 07:42:05;;;;;;;784.90;723.33;;;;;;;-142.25;100.00;58004.16;5081188;28;20166;-58
2021/08/31 07:44:30;;;;;;;793.47;731.30;;;;;;;-142.25;100.00;58004.16;5079590;28;20020;-58
2021/08/31 07:46:57;;;;;;;790.22;728.25;;;;;;;-142.25;100.00;58004.16;5081560;28;20561;-59
2021/08/31 07:49:23;;;;;;;786.03;724.53;;;;;;;-142.25;100.00;58004.16;5080139;28;20089;-58
2021/08/31 07:51:48;;;;;;;786.85;725.00;;;;;;;-142.25;100.00;58004.16;5078641;28;20040;-58
2021/08/31 07:54:14;;;;;;;779.78;718.25;;;;;;;-142.25;100.00;58004.16;5080041;28;20029;-58
2021/08/31 07:56:41;;;;;;;790.00;727.83;;;;;;;-142.25;100.00;58004.16;5081048;28;20032;-58
2021/08/31 07:59:06;;;;;;;788.67;727.08;;;;;;;-142.25;100.00;58004.16;5078696;28;20082;-59
2021/08/31 08:01:32;;;;;;;785.90;724.38;;;;;;;-142.25;100.00;58004.16;5079551;28;20036;-58
2021/08/31 08:03:58;;;;;;;790.47;728.85;;;;;;;-142.25;100.00;58004.16;5080654;28;20028;-59
2021/08/31 08:06:24;;;;;;;799.83;737.58;;;;;;;-142.25;100.00;58004.16;5080271;28;20024;-58
2021/08/31 08:08:50;;;;;;;806.75;744.17;;;;;;;-142.25;100.00;58004.16;5080478;28;20097;-58
2021/08/31 08:11:15;;;;;;;790.55;728.53;;;;;;;-142.25;100.00;58004.16;5079858;28;20021;-58
2021/08/31 08:13:41;;;;;;;795.47;733.35;;;;;;;-142.25;100.00;58004.16;5064262;28;20035;-59
2021/08/31 08:16:06;;;;;;;790.75;728.83;;;;;;;-142.25;100.00;58004.16;5081179;28;20098;-58
2021/08/31 08:18:32;;;;;;;785.30;723.25;;;;;;;-142.25;100.00;58004.16;5077945;28;20054;-58
2021/08/31 08:20:58;;;;;;;784.70;723.13;;;;;;;-142.25;100.00;58004.16;5078990;28;20402;-58
2021/08/31 08:23:23;;;;;;;793.55;731.45;;;;;;;-142.25;100.00;58004.16;5078747;28;20273;-58
2021/08/31 08:25:49;;;;;;;794.08;731.58;;;;;;;-142.25;100.00;58004.16;5080912;28;20032;-59
2021/08/31 08:28:15;;;;;;;785.03;723.55;;;;;;;-142.25;100.00;58004.16;5080014;28;20035;-57
2021/08/31 08:30:41;;;;;;;793.92;732.40;;;;;;;-142.25;100.00;58004.16;5076930;28;20023;-60
2021/08/31 08:33:06;;;;;;;784.92;723.65;;;;;;;-142.25;100.00;58004.16;5078714;28;20029;-57
2021/08/31 08:35:32;;;;;;;786.13;724.88;;;;;;;-142.25;100.00;58004.16;5078899;28;20056;-57
2021/08/31 08:37:59;;;;;;;778.88;717.58;;;;;;;-142.25;100.00;58004.16;5064175;28;20478;-58
2021/08/31 08:40:25;;;;;;;779.78;718.15;;;;;;;-142.25;100.00;58004.16;5077679;28;20410;-58
2021/08/31 08:42:53;;;;;;;785.90;724.30;;;;;;;-142.25;100.00;58004.16;5078830;28;20024;-58
2021/08/31 08:45:20;;;;;;;783.28;721.92;;;;;;;-142.25;100.00;58004.16;5079846;28;20142;-59
2021/08/31 08:47:45;;;;;;;782.58;721.47;;;;;;;-142.25;100.00;58004.16;5078369;28;20320;-59
2021/08/31 08:50:11;;;;;;;792.90;731.08;;;;;;;-142.25;100.00;58004.16;5077002;28;20277;-61
2021/08/31 08:52:36;;;;;;;786.15;724.58;;;;;;;-142.25;100.00;58004.16;5062581;28;20070;-58
2021/08/31 08:55:09;;;;;;;782.55;721.25;;;;;;;-142.25;100.00;58004.16;5079934;28;20062;-59
2021/08/31 08:57:35;;;;;;;790.65;729.05;;;;;;;-142.25;100.00;58004.16;5078654;28;20047;-59
2021/08/31 09:00:01;;;;;;;788.15;726.45;;;;;;;-142.25;100.00;58004.16;5077145;28;20364;-58
2021/08/31 09:02:35;;;;;;;782.97;721.30;;;;;;;-142.25;100.00;58004.16;5077518;28;20035;-57
2021/08/31 09:05:01;;;;;;;793.97;731.75;;;;;;;-142.25;100.00;58004.16;5078936;28;20319;-58
2021/08/31 09:07:30;;;;;;;785.40;724.05;;;;;;;-142.25;100.00;58004.16;5078522;28;20062;-57
2021/08/31 09:10:11;;;;;;;791.70;729.55;;;;;;;-142.25;100.00;58004.16;5062485;28;20271;-58
2021/08/31 09:12:38;;;;;;;798.65;736.15;;;;;;;-142.25;100.00;58004.16;5077853;28;20082;-58
2021/08/31 09:15:22;;;;;;;797.53;735.67;;;;;;;-142.25;100.00;58004.16;5078969;28;20071;-58
2021/08/31 09:18:12;;;;;;;803.80;741.92;;;;;;;-142.25;100.00;58004.16;5077513;28;20050;-58
2021/08/31 09:20:53;;;;;;;792.58;730.92;;;;;;;-142.25;100.00;58004.16;5078996;28;20069;-58
2021/08/31 09:23:21;;;;;;;795.88;734.20;;;;;;;-142.25;100.00;58004.16;5083443;28;20047;-58
2021/08/31 09:25:50;;;;;;;779.78;718.65;;;;;;;-142.25;100.00;58004.16;5083954;28;20036;-57
2021/08/31 09:28:39;;;;;;;779.70;718.60;;;;;;;-142.25;100.00;58004.16;5064951;28;20032;-59
2021/08/31 09:31:14;;;;;;;772.08;711.08;;;;;;;-142.25;100.00;58004.16;5081684;28;20063;-59
2021/08/31 09:33:42;;;;;;;760.95;700.22;;;;;;;-142.25;100.00;58004.16;5080470;28;20056;-58
2021/08/31 09:36:12;;;;;;;759.23;698.27;;;;;;;-142.25;100.00;58004.16;5082964;28;20119;-59
2021/08/31 09:38:52;;;;;;;753.33;692.50;;;;;;;-142.25;100.00;58004.16;5083109;28;20039;-58
2021/08/31 09:41:39;;;;;;;744.73;684.00;;;;;;;-142.25;100.00;58004.16;5084130;28;20052;-59
2021/08/31 09:44:19;;;;;;;;;;;;;;;-142.25;100.00;58004.16;5083526;28;20487;-57
2021/08/31 09:46:59;;;;;;;717.13;657.30;;;;;;;-142.25;100.00;58004.16;5081505;28;20264;-56
2021/08/31 09:49:30;;;;;;;735.73;675.30;;;;;;;-142.25;100.00;58004.16;5082001;28;20198;-58
2021/08/31 09:52:10;;;;;;;732.80;672.50;;;;;;;-142.25;100.00;58004.16;5082566;28;20412;-57
2021/08/31 09:54:38;;;;;;;732.93;672.73;;;;;;;-142.25;100.00;58004.16;5082708;28;20830;-59
2021/08/31 09:57:35;;;;;;;735.70;675.70;;;;;;;-142.25;100.00;58004.16;5081303;28;20354;-58
2021/08/31 10:00:05;;;;;;;737.70;677.37;;;;;;;-142.25;100.00;58004.16;5081974;28;20406;-59
2021/08/31 10:02:31;;;;;;;737.70;676.40;;;;;;;-142.25;100.00;58004.16;5079842;28;20024;-59
2021/08/31 10:04:56;;;;;;;735.87;675.30;;;;;;;-142.25;100.00;58004.16;5082337;28;20415;-59
2021/08/31 10:07:24;;;;;;;729.73;669.47;;;;;;;-142.25;100.00;58004.16;5082400;28;20423;-59
2021/08/31 10:09:50;;;;;;;718.30;658.27;;;;;;;-142.25;100.00;58004.16;5065596;28;20024;-58
2021/08/31 10:12:18;;;;;;;721.43;661.23;;;;;;;-142.25;100.00;58004.16;5081785;28;20028;-58
2021/08/31 10:14:45;;;;;;;713.97;653.87;;;;;;;-142.25;100.00;58004.16;5081165;28;20047;-56
2021/08/31 10:17:12;;;;;;;718.70;658.53;;;;;;;-142.25;100.00;58004.16;5064262;28;20119;-57
2021/08/31 10:19:41;;;;;;;712.03;652.00;;;;;;;-142.25;100.00;58004.16;5080937;28;20031;-58
2021/08/31 10:22:10;;;;;;;706.27;646.47;;;;;;;-142.25;100.00;58004.16;5080634;28;20572;-56
2021/08/31 10:24:36;;;;;;;706.13;646.40;;;;;;;-142.25;100.00;58004.16;5080584;28;20047;-58
2021/08/31 10:27:29;;;;;;;705.83;645.97;;;;;;;-142.25;100.00;58004.16;5080323;28;20381;-57
2021/08/31 10:30:20;;;;;;;707.40;647.30;;;;;;;-142.25;100.00;58004.16;5081129;28;20029;-58
2021/08/31 10:32:49;;;;;;;696.97;637.03;;;;;;;-142.25;100.00;58004.16;5080885;28;20098;-58
2021/08/31 10:35:42;;;;;;;694.83;635.07;;;;;;;-142.25;100.00;58004.16;5080769;28;20052;-58
2021/08/31 10:38:10;;;;;;;681.93;622.43;;;;;;;-142.25;100.00;58004.16;5080837;28;20132;-58